Time;durP1;ratioP1;P1;durP2;ratioP2;P2;SDS_P1;SDS_P2;PMS_P1;PMS_P2;Temp;Humidity;BMP_temperature;BMP_pressure;BME280_temperature;BME280_humidity;BME280_pressure;Samples;Min_cycle;Max_cycle;Signal;HPM_P1;HPM_P2
2023/07/11 00:01:25;;;;;;;1.80;1.30;;;;;;;16.08;71.70;98913.88;5066523;28;20040;-43
2023/07/11 00:03:51;;;;;;;2.33;1.50;;;;;;;16.08;71.57;98921.75;5066411;28;20721;-41
2023/07/11 00:06:19;;;;;;;2.95;1.20;;;;;;;15.92;71.69;98893.13;5066174;28;20040;-41
2023/07/11 00:08:45;;;;;;;2.58;1.50;;;;;;;16.07;71.79;98917.44;5048710;28;20594;-45
2023/07/11 00:11:17;;;;;;;5.60;2.10;;;;;;;16.09;71.30;98915.56;5066102;28;20075;-43
2023/07/11 00:13:43;;;;;;;4.45;1.90;;;;;;;16.09;71.33;98912.94;5065252;28;20043;-43
2023/07/11 00:16:11;;;;;;;3.47;1.70;;;;;;;16.10;71.58;98919.88;5067181;28;20051;-43
2023/07/11 00:18:37;;;;;;;4.22;1.55;;;;;;;16.05;71.56;98911.47;5040916;28;20044;-42
2023/07/11 00:21:04;;;;;;;6.85;2.95;;;;;;;15.98;71.32;98897.09;5066757;28;20044;-42
2023/07/11 00:23:30;;;;;;;6.03;2.83;;;;;;;15.91;71.52;98882.75;5064808;28;20093;-41
2023/07/11 00:25:56;;;;;;;4.47;1.85;;;;;;;16.13;71.43;98913.56;5065485;28;20032;-42
2023/07/11 00:28:22;;;;;;;1.90;1.20;;;;;;;16.00;71.19;98890.81;5065231;28;20036;-40
2023/07/11 00:30:49;;;;;;;3.05;1.60;;;;;;;16.02;71.04;98894.16;5039880;28;20049;-44
2023/07/11 00:33:15;;;;;;;2.05;1.27;;;;;;;16.16;70.90;98922.06;5058570;28;20043;-42
2023/07/11 00:35:44;;;;;;;4.43;1.15;;;;;;;16.09;71.27;98913.78;5055502;28;20582;-44
2023/07/11 00:38:12;;;;;;;;;;;;;;;16.13;70.82;98921.41;5045031;28;20044;-41
2023/07/11 00:40:40;;;;;;;2.55;1.40;;;;;;;16.06;71.07;98916.63;5044805;28;19967;-40
2023/07/11 00:43:10;;;;;;;1.48;1.20;;;;;;;16.07;71.12;98918.28;5064549;28;20036;-42
2023/07/11 00:46:02;;;;;;;2.47;1.23;;;;;;;16.06;71.28;98916.63;5044115;28;20097;-39
2023/07/11 00:48:30;;;;;;;2.08;1.30;;;;;;;16.08;70.95;98913.88;5069417;28;20052;-40
2023/07/11 00:50:57;;;;;;;11.07;2.95;;;;;;;15.94;71.11;98893.88;5065535;28;20037;-40
2023/07/11 00:53:25;;;;;;;5.43;1.70;;;;;;;15.88;70.85;98886.41;5067932;28;20067;-40
2023/07/11 00:55:50;;;;;;;1.58;1.08;;;;;;;16.08;70.92;98921.75;5068562;28;20033;-40
2023/07/11 00:58:18;;;;;;;1.92;1.10;;;;;;;16.07;70.73;98915.66;5070679;28;20048;-42
2023/07/11 01:00:44;;;;;;;4.63;1.30;;;;;;;16.06;71.20;98919.25;5052883;28;20040;-41
2023/07/11 01:03:10;;;;;;;9.75;3.40;;;;;;;16.02;70.89;98904.66;5052690;28;20428;-43
2023/07/11 01:05:38;;;;;;;5.03;2.15;;;;;;;16.05;71.01;98908.84;5069464;28;20056;-41
2023/07/11 01:08:05;;;;;;;4.53;1.27;;;;;;;16.02;71.02;98917.75;5054280;28;20040;-41
2023/07/11 01:10:31;;;;;;;3.05;1.30;;;;;;;16.01;70.77;98913.47;5070974;28;20047;-41
2023/07/11 01:13:01;;;;;;;1.67;1.20;;;;;;;16.03;71.04;98915.97;5059636;28;20068;-42
2023/07/11 01:15:27;;;;;;;2.17;1.30;;;;;;;15.99;70.75;98917.97;5069067;28;20068;-42
2023/07/11 01:17:53;;;;;;;1.55;1.10;;;;;;;16.01;70.70;98913.47;5069247;28;20795;-44
2023/07/11 01:20:25;;;;;;;5.22;1.73;;;;;;;16.01;70.84;98915.25;5069177;28;20477;-46
2023/07/11 01:22:52;;;;;;;3.58;1.40;;;;;;;16.04;70.93;98909.78;5069305;28;20879;-45
2023/07/11 01:25:18;;;;;;;9.35;2.50;;;;;;;15.95;70.85;98897.31;5032345;28;20190;-44
2023/07/11 01:27:47;;;;;;;4.00;1.85;;;;;;;16.05;70.77;98906.22;5049395;28;20074;-43
2023/07/11 01:30:16;;;;;;;3.45;1.30;;;;;;;16.06;70.65;98905.28;5064097;28;20037;-53
2023/07/11 01:32:42;;;;;;;;;;;;;;;16.06;70.65;98908.75;5068070;28;20435;-44
2023/07/11 01:35:08;;;;;;;9.73;2.85;;;;;;;16.04;70.83;98907.16;5066976;28;19928;-45
2023/07/11 01:37:35;;;;;;;5.25;2.13;;;;;;;16.03;70.88;98911.56;5067674;28;20040;-44
2023/07/11 01:40:01;;;;;;;3.13;1.60;;;;;;;15.92;70.74;98894.91;5067643;28;20044;-43
2023/07/11 01:42:28;;;;;;;2.67;1.27;;;;;;;16.04;70.75;98907.16;5067690;28;20776;-42
2023/07/11 01:44:54;;;;;;;1.20;1.02;;;;;;;15.97;70.93;98909.38;5067928;28;20048;-42
2023/07/11 01:47:21;;;;;;;4.47;1.15;;;;;;;15.99;70.85;98915.34;5069280;28;20075;-43
2023/07/11 01:49:47;;;;;;;3.85;1.50;;;;;;;15.97;71.16;98916.38;5068919;28;20482;-43
2023/07/11 01:52:16;;;;;;;3.92;1.35;;;;;;;15.96;71.16;98912.94;5070307;28;20043;-46
2023/07/11 01:54:42;;;;;;;2.17;1.50;;;;;;;15.96;71.06;98912.94;5034541;28;20493;-44
2023/07/11 01:57:08;;;;;;;2.45;1.38;;;;;;;15.96;71.54;98912.13;5063697;28;20028;-42
2023/07/11 01:59:36;;;;;;;1.85;1.17;;;;;;;15.95;71.09;98908.66;5044755;28;20576;-41
2023/07/11 02:02:02;;;;;;;2.47;1.00;;;;;;;15.84;71.22;98886.72;5067049;28;20048;-40
2023/07/11 02:04:30;;;;;;;2.38;0.98;;;;;;;15.96;71.09;98905.06;5034216;28;20049;-42
2023/07/11 02:06:56;;;;;;;3.42;1.10;;;;;;;15.84;71.24;98890.19;5067748;28;20105;-42
2023/07/11 02:09:22;;;;;;;2.03;1.20;;;;;;;15.92;71.19;98898.34;5067845;28;20037;-42
2023/07/11 02:11:48;;;;;;;3.55;1.33;;;;;;;15.94;71.26;98898.25;5069278;28;20127;-43
2023/07/11 02:14:19;;;;;;;3.65;1.63;;;;;;;15.94;71.36;98906.97;5067592;28;20106;-43
2023/07/11 02:16:47;;;;;;;2.50;1.40;;;;;;;15.93;71.64;98904.44;5034936;28;20136;-41
2023/07/11 02:19:18;;;;;;;3.05;1.00;;;;;;;15.96;71.58;98902.44;5068546;28;20131;-42
2023/07/11 02:22:04;;;;;;;1.73;1.10;;;;;;;15.97;71.73;98905.91;5050871;28;20052;-44
2023/07/11 02:24:30;;;;;;;2.63;1.10;;;;;;;15.93;71.81;98905.28;5067807;28;20048;-41
2023/07/11 02:26:56;;;;;;;1.63;0.90;;;;;;;15.94;71.68;98906.13;5067922;28;20059;-43
2023/07/11 02:29:22;;;;;;;3.67;1.02;;;;;;;15.97;72.07;98911.16;5068820;28;20130;-43
2023/07/11 02:31:48;;;;;;;2.58;1.10;;;;;;;16.01;71.65;98904.78;5051571;28;20036;-42
2023/07/11 02:34:15;;;;;;;2.88;1.10;;;;;;;16.02;71.91;98902.03;5067776;28;20102;-43
2023/07/11 02:36:40;;;;;;;1.67;0.90;;;;;;;16.00;71.60;98908.34;5067279;28;20032;-44
2023/07/11 02:39:06;;;;;;;1.95;1.00;;;;;;;15.91;71.74;98894.06;5069486;28;20045;-43
2023/07/11 02:41:33;;;;;;;1.00;0.90;;;;;;;16.00;71.71;98900.47;5066260;28;20036;-42
2023/07/11 02:43:59;;;;;;;5.82;1.20;;;;;;;15.98;72.09;98899.72;5067575;28;20044;-44
2023/07/11 02:46:25;;;;;;;3.47;0.95;;;;;;;15.96;72.31;98902.44;5067923;28;20033;-44
2023/07/11 02:48:51;;;;;;;2.22;0.85;;;;;;;15.96;71.99;98896.38;5066357;28;20044;-44
2023/07/11 02:51:17;;;;;;;8.05;1.30;;;;;;;15.70;72.26;98858.03;5067869;28;20691;-42
2023/07/11 02:53:44;;;;;;;2.05;0.80;;;;;;;15.99;72.21;98894.38;5067067;28;20058;-43
2023/07/11 02:56:10;;;;;;;2.58;1.23;;;;;;;16.01;71.96;98904.78;5066480;28;20047;-42
2023/07/11 02:58:36;;;;;;;4.93;1.08;;;;;;;15.98;71.83;98899.72;5067939;28;20071;-43
2023/07/11 03:01:02;;;;;;;1.88;1.08;;;;;;;15.98;71.86;98907.59;5068216;28;20856;-44
2023/07/11 03:03:28;;;;;;;2.47;0.70;;;;;;;15.97;71.74;98903.28;5068889;28;20135;-44
2023/07/11 03:05:55;;;;;;;2.88;1.05;;;;;;;16.04;71.92;98907.16;5068201;28;20056;-47
2023/07/11 03:08:21;;;;;;;2.90;1.67;;;;;;;16.05;71.52;98898.38;5068520;28;20048;-45
2023/07/11 03:10:47;;;;;;;1.67;0.90;;;;;;;16.04;71.73;98896.69;5068835;28;20066;-44
2023/07/11 03:13:13;;;;;;;4.13;1.70;;;;;;;16.09;71.38;98900.66;5069115;28;20044;-42
2023/07/11 03:15:39;;;;;;;9.10;1.55;;;;;;;16.13;71.52;98901.28;5046558;28;20421;-44
2023/07/11 03:18:07;;;;;;;4.32;1.45;;;;;;;16.00;70.80;98871.63;5047155;28;20041;-43
2023/07/11 03:20:40;;;;;;;3.75;1.30;;;;;;;16.17;70.59;98904.56;5047166;28;20037;-43
2023/07/11 03:23:08;;;;;;;2.83;1.05;;;;;;;16.02;70.49;98873.19;5046853;28;20056;-46
2023/07/11 03:25:34;;;;;;;4.18;1.23;;;;;;;16.18;70.36;98903.56;5051564;28;20132;-44
2023/07/11 03:28:00;;;;;;;4.75;1.45;;;;;;;16.20;70.48;98901.69;5050438;28;20045;-44
2023/07/11 03:30:26;;;;;;;4.22;1.38;;;;;;;16.20;70.63;98904.31;5066819;28;20036;-44
2023/07/11 03:32:52;;;;;;;3.70;1.00;;;;;;;16.16;70.56;98906.34;5066488;28;20617;-44
2023/07/11 03:35:18;;;;;;;2.13;1.10;;;;;;;16.14;70.82;98904.75;5067731;28;20095;-44
2023/07/11 03:37:44;;;;;;;2.85;1.10;;;;;;;16.14;71.44;98904.75;5067790;28;20052;-41
2023/07/11 03:40:10;;;;;;;3.88;1.98;;;;;;;16.16;71.51;98903.72;5066822;28;20151;-42
2023/07/11 03:42:36;;;;;;;5.05;2.92;;;;;;;16.05;71.45;98874.78;5068125;28;20423;-44
2023/07/11 03:45:03;;;;;;;2.13;1.08;;;;;;;16.25;71.68;98902.22;5049999;28;20055;-44
2023/07/11 03:47:30;;;;;;;4.03;1.27;;;;;;;16.17;71.37;98873.06;5067785;28;20125;-44
2023/07/11 03:49:56;;;;;;;4.13;1.10;;;;;;;16.42;70.72;98904.50;5067445;28;20081;-45
2023/07/11 03:52:22;;;;;;;2.10;1.50;;;;;;;16.42;69.69;98880.91;5067723;28;20132;-44
2023/07/11 03:54:48;;;;;;;3.00;0.98;;;;;;;16.61;69.22;98902.28;5049550;28;20070;-41
2023/07/11 03:57:15;;;;;;;3.63;0.90;;;;;;;16.63;68.81;98905.63;5064278;28;20567;-43
2023/07/11 03:59:42;;;;;;;5.85;0.80;;;;;;;16.66;68.66;98910.66;5066354;28;20075;-45
2023/07/11 04:02:07;;;;;;;2.42;1.33;;;;;;;16.65;68.33;98911.59;5067192;28;20039;-44
2023/07/11 04:04:33;;;;;;;3.78;1.33;;;;;;;16.67;67.94;98909.72;5067520;28;20040;-47
2023/07/11 04:06:59;;;;;;;4.65;2.08;;;;;;;16.40;67.93;98861.78;5064506;28;20040;-41
2023/07/11 04:09:25;;;;;;;2.72;1.75;;;;;;;16.59;67.85;98898.91;5046475;28;20052;-39
2023/07/11 04:11:51;;;;;;;2.60;1.27;;;;;;;16.60;67.47;98903.22;5046638;28;20074;-44
2023/07/11 04:14:17;;;;;;;6.70;1.17;;;;;;;16.60;67.59;98895.34;5064859;28;20059;-43
2023/07/11 04:16:43;;;;;;;2.78;1.23;;;;;;;16.62;67.26;98900.50;5047776;28;20041;-43
2023/07/11 04:19:09;;;;;;;6.65;3.53;;;;;;;16.48;67.17;98875.22;5065172;28;20090;-42
2023/07/11 04:21:36;;;;;;;2.65;1.65;;;;;;;16.61;67.48;98891.78;5049183;28;20051;-41
2023/07/11 04:24:02;;;;;;;2.97;1.08;;;;;;;16.48;67.24;98867.34;5066161;28;20037;-39
2023/07/11 04:26:28;;;;;;;3.15;1.10;;;;;;;16.56;66.88;98872.88;5047781;28;20140;-43
2023/07/11 04:28:54;;;;;;;2.85;1.27;;;;;;;16.85;66.41;98889.19;5066917;28;20524;-45
2023/07/11 04:31:21;;;;;;;2.33;0.90;;;;;;;17.02;65.96;98893.19;5066279;28;20059;-43
2023/07/11 04:33:47;;;;;;;1.83;0.95;;;;;;;17.10;65.72;98886.44;5066826;28;20044;-44
2023/07/11 04:36:14;;;;;;;2.42;0.60;;;;;;;17.16;65.21;98888.63;5067069;28;20044;-58
2023/07/11 04:38:43;;;;;;;3.70;0.77;;;;;;;17.17;64.75;98889.44;5048913;28;20106;-43
2023/07/11 04:41:12;;;;;;;1.30;0.80;;;;;;;16.98;64.40;98861.06;5016840;28;20064;-43
2023/07/11 04:43:39;;;;;;;3.55;1.33;;;;;;;17.04;64.55;98884.25;5067389;28;20567;-46
2023/07/11 04:46:05;;;;;;;1.90;0.70;;;;;;;16.96;64.49;98876.09;5032611;28;20028;-45
2023/07/11 04:48:32;;;;;;;1.45;0.80;;;;;;;16.94;64.52;98884.09;5066312;28;20092;-45
2023/07/11 04:51:04;;;;;;;2.38;1.00;;;;;;;16.93;64.40;98877.16;5067008;28;20041;-47
2023/07/11 04:53:31;;;;;;;1.40;0.90;;;;;;;17.18;63.67;98878.81;5065836;28;20482;-44
2023/07/11 04:56:08;;;;;;;2.80;1.00;;;;;;;17.27;62.99;98856.31;5065433;28;20083;-43
2023/07/11 04:58:35;;;;;;;2.53;1.02;;;;;;;17.43;62.61;98877.00;5065885;28;20040;-45
2023/07/11 05:01:04;;;;;;;1.60;0.80;;;;;;;17.36;62.57;98877.47;5066708;28;20063;-41
2023/07/11 05:03:30;;;;;;;2.63;0.88;;;;;;;17.25;62.53;98882.69;5064303;28;20497;-42
2023/07/11 05:05:57;;;;;;;2.15;0.47;;;;;;;17.13;62.62;98880.94;5066811;28;20052;-42
2023/07/11 05:08:23;;;;;;;1.52;0.70;;;;;;;17.04;63.03;98880.78;5082055;28;20424;-43
2023/07/11 05:11:08;;;;;;;2.85;0.77;;;;;;;16.98;63.11;98881.25;5065761;28;20049;-41
2023/07/11 05:13:34;;;;;;;1.65;0.60;;;;;;;16.90;63.44;98876.56;5065059;28;20064;-42
2023/07/11 05:16:09;;;;;;;1.50;1.27;;;;;;;16.82;63.78;98879.72;5066900;28;20138;-42
2023/07/11 05:18:37;;;;;;;5.07;0.93;;;;;;;16.78;63.74;98866.94;5048466;28;20423;-42
2023/07/11 05:21:03;;;;;;;4.20;0.82;;;;;;;16.76;64.21;98868.84;5068098;28;20862;-43
2023/07/11 05:23:30;;;;;;;2.55;1.00;;;;;;;16.80;64.24;98876.38;5069249;28;20037;-41
2023/07/11 05:25:56;;;;;;;3.90;0.73;;;;;;;16.95;64.08;98866.56;5059427;28;20067;-48
2023/07/11 05:28:24;;;;;;;2.78;1.20;;;;;;;17.06;63.68;98869.22;5055195;28;20060;-41
2023/07/11 05:30:51;;;;;;;3.47;0.80;;;;;;;17.15;63.33;98863.31;5069356;28;20416;-41
2023/07/11 05:33:17;;;;;;;2.17;1.08;;;;;;;17.29;63.26;98865.72;5067653;28;20052;-43
2023/07/11 05:38:46;;;;;;;3.20;1.35;;;;;;;17.17;62.84;98842.16;5037824;28;20056;-43
2023/07/11 05:41:11;;;;;;;2.15;1.08;;;;;;;17.17;63.27;98856.13;5068820;28;20451;-42
2023/07/11 05:43:37;;;;;;;5.50;0.98;;;;;;;17.12;63.38;98855.63;5069899;28;20044;-40
2023/07/11 05:46:03;;;;;;;1.83;0.82;;;;;;;17.17;63.54;98863.16;5070938;28;20499;-41
2023/07/11 05:48:29;;;;;;;1.70;0.90;;;;;;;17.22;63.44;98861.88;5068434;28;20044;-44
2023/07/11 05:51:07;;;;;;;3.75;0.90;;;;;;;17.32;63.15;98859.41;5065431;28;20132;-42
2023/07/11 05:53:33;;;;;;;3.67;1.00;;;;;;;17.33;63.10;98861.06;5067937;28;20060;-41
2023/07/11 05:55:59;;;;;;;4.78;0.88;;;;;;;17.31;63.15;98865.63;5065998;28;20044;-43
2023/07/11 05:58:30;;;;;;;2.72;1.30;;;;;;;17.27;63.18;98862.38;5069671;28;20098;-42
2023/07/11 06:00:56;;;;;;;1.00;0.70;;;;;;;17.25;63.33;98859.03;5063767;28;20111;-43
2023/07/11 06:03:24;;;;;;;4.28;1.02;;;;;;;17.18;63.26;98849.91;5065929;28;20040;-41
2023/07/11 06:05:50;;;;;;;2.55;1.13;;;;;;;17.09;63.17;98834.84;5050657;28;20571;-40
2023/07/11 06:08:16;;;;;;;1.40;0.80;;;;;;;17.16;63.17;98851.00;5066929;28;20052;-41
2023/07/11 06:10:43;;;;;;;3.28;1.30;;;;;;;17.21;63.11;98851.50;5066710;28;20519;-42
2023/07/11 06:13:13;;;;;;;4.35;1.42;;;;;;;17.22;62.86;98855.78;5061172;28;20059;-40
2023/07/11 06:15:39;;;;;;;4.15;0.95;;;;;;;17.18;63.22;98836.78;5059735;28;20101;-40
2023/07/11 06:18:05;;;;;;;0.80;0.70;;;;;;;17.35;62.89;98848.66;5050021;28;20040;-40
2023/07/11 06:20:31;;;;;;;2.35;0.88;;;;;;;17.55;62.35;98844.53;5069539;28;20076;-39
2023/07/11 06:22:57;;;;;;;1.17;0.80;;;;;;;17.75;61.75;98835.97;5068457;28;20040;-42
2023/07/11 06:25:23;;;;;;;3.20;1.20;;;;;;;17.82;61.46;98837.19;5051054;28;20040;-41
2023/07/11 06:27:49;;;;;;;1.13;0.70;;;;;;;17.83;61.29;98845.91;5047575;28;20040;-40
2023/07/11 06:30:15;;;;;;;1.40;0.88;;;;;;;17.78;61.18;98838.38;5067496;28;20122;-40
2023/07/11 06:32:41;;;;;;;2.83;0.75;;;;;;;17.72;61.39;98830.97;5063642;28;20753;-39
2023/07/11 06:35:07;;;;;;;2.65;0.80;;;;;;;17.67;61.45;98836.59;5066837;28;20428;-39
2023/07/11 06:37:33;;;;;;;3.50;0.90;;;;;;;17.73;61.16;98833.50;5051208;28;20202;-38
2023/07/11 06:39:58;;;;;;;3.83;0.93;;;;;;;17.84;61.07;98827.41;5066873;28;20587;-39
2023/07/11 06:42:24;;;;;;;4.47;0.95;;;;;;;17.98;60.95;98816.63;5061288;28;20041;-38
2023/07/11 06:44:50;;;;;;;2.22;0.80;;;;;;;18.14;60.59;98819.72;5066163;28;20428;-41
2023/07/11 06:47:16;;;;;;;5.25;1.10;;;;;;;18.13;60.49;98820.69;5069125;28;20033;-41
2023/07/11 06:49:43;;;;;;;2.78;0.90;;;;;;;17.93;60.48;98794.28;5066542;28;20424;-40
2023/07/11 06:52:10;;;;;;;1.88;1.00;;;;;;;17.96;60.64;98815.06;5067595;28;20413;-44
2023/07/11 06:54:36;;;;;;;2.75;1.30;;;;;;;17.88;60.87;98813.06;5065591;28;20060;-41
2023/07/11 06:57:03;;;;;;;2.90;0.90;;;;;;;17.80;60.76;98818.06;5066563;28;20515;-41
2023/07/11 06:59:29;;;;;;;5.50;1.45;;;;;;;17.76;60.86;98814.00;5058891;28;20190;-41
2023/07/11 07:01:55;;;;;;;3.20;1.30;;;;;;;17.88;60.56;98810.41;5067328;28;20123;-39
2023/07/11 07:04:21;;;;;;;2.60;1.40;;;;;;;18.00;60.25;98812.09;5065705;28;20489;-39
2023/07/11 07:06:47;;;;;;;2.38;0.90;;;;;;;17.97;59.95;98785.19;5065771;28;20123;-42
2023/07/11 07:09:13;;;;;;;1.38;0.88;;;;;;;18.18;59.68;98804.53;5063113;28;20045;-39
2023/07/11 07:11:40;;;;;;;4.00;0.90;;;;;;;18.20;59.31;98790.31;5048516;28;20114;-39
2023/07/11 07:14:08;;;;;;;2.55;1.10;;;;;;;18.59;58.68;98811.75;5055126;28;20059;-42
2023/07/11 07:16:38;;;;;;;2.28;1.00;;;;;;;19.07;57.91;98812.19;5067829;28;20124;-39
2023/07/11 07:19:06;;;;;;;1.58;1.20;;;;;;;19.33;57.04;98802.09;5065274;28;20420;-39
2023/07/11 07:21:32;;;;;;;3.13;0.93;;;;;;;19.38;56.45;98792.84;5056206;28;20051;-44
2023/07/11 07:23:58;;;;;;;2.35;0.70;;;;;;;19.53;56.21;98801.28;5035940;28;20032;-42
2023/07/11 07:26:25;;;;;;;3.88;1.00;;;;;;;19.52;56.08;98802.25;5059233;28;20040;-43
2023/07/11 07:28:51;;;;;;;2.63;1.20;;;;;;;19.57;56.00;98807.97;5050201;28;20699;-43
2023/07/11 07:31:17;;;;;;;2.38;1.00;;;;;;;19.55;55.81;98801.16;5065723;28;20040;-43
2023/07/11 07:33:43;;;;;;;3.28;1.45;;;;;;;19.41;55.87;98797.88;5043170;28;20068;-44
2023/07/11 07:36:11;;;;;;;1.20;0.93;;;;;;;19.35;55.89;98808.09;5066645;28;20048;-42
2023/07/11 07:38:38;;;;;;;1.50;0.90;;;;;;;19.25;55.92;98804.56;5066952;28;20044;-41
2023/07/11 07:41:06;;;;;;;2.55;1.25;;;;;;;19.24;55.88;98808.16;5066146;28;20040;-41
2023/07/11 07:43:33;;;;;;;3.08;0.98;;;;;;;19.35;55.82;98808.94;5062597;28;20072;-42
2023/07/11 07:46:01;;;;;;;2.83;0.98;;;;;;;19.61;55.29;98809.38;5049837;28;20085;-43
2023/07/11 07:48:27;;;;;;;4.10;0.82;;;;;;;19.80;55.02;98812.09;5065080;28;20076;-42
2023/07/11 07:51:02;;;;;;;4.32;1.48;;;;;;;19.76;55.00;98801.97;5054806;28;20045;-41
2023/07/11 07:53:28;;;;;;;3.58;1.00;;;;;;;19.61;55.19;98801.47;5052909;28;20547;-41
2023/07/11 07:55:54;;;;;;;1.77;0.90;;;;;;;19.43;55.40;98803.84;5058673;28;20032;-45
2023/07/11 07:58:20;;;;;;;5.15;1.10;;;;;;;19.14;55.97;98780.91;5061386;28;20056;-41
2023/07/11 08:00:46;;;;;;;2.08;1.00;;;;;;;19.05;56.36;98798.31;5060660;28;20173;-43
2023/07/11 08:03:12;;;;;;;1.88;0.95;;;;;;;18.99;56.49;98798.81;5067792;28;20135;-40
2023/07/11 08:05:38;;;;;;;2.65;0.98;;;;;;;18.96;56.59;98796.44;5067121;28;20500;-44
2023/07/11 08:08:04;;;;;;;3.65;1.05;;;;;;;18.87;56.69;98776.97;5064638;28;20047;-41
2023/07/11 08:10:32;;;;;;;1.77;0.90;;;;;;;19.18;56.57;98795.47;5057805;28;20093;-40
2023/07/11 08:12:58;;;;;;;1.58;1.00;;;;;;;19.75;55.66;98795.00;5058063;28;20040;-43
2023/07/11 08:15:24;;;;;;;6.05;1.40;;;;;;;20.81;53.79;98806.72;5061022;28;20032;-41
2023/07/11 08:17:50;;;;;;;1.40;0.80;;;;;;;21.41;52.17;98802.91;5066748;28;20040;-40
2023/07/11 08:20:16;;;;;;;6.70;0.80;;;;;;;21.61;51.01;98763.22;5059861;28;20048;-42
2023/07/11 08:22:42;;;;;;;1.35;0.90;;;;;;;21.88;50.32;98782.56;5063669;28;20036;-41
2023/07/11 08:25:08;;;;;;;4.80;0.73;;;;;;;22.05;50.18;98801.34;5066750;28;20039;-40
2023/07/11 08:27:34;;;;;;;2.70;1.30;;;;;;;22.18;49.66;98797.41;5065531;28;20047;-41
2023/07/11 08:30:00;;;;;;;1.90;0.82;;;;;;;22.03;49.21;98787.44;5054569;28;20416;-40
2023/07/11 08:32:26;;;;;;;5.28;0.80;;;;;;;22.02;49.26;98801.66;5062134;28;20048;-41
2023/07/11 08:34:52;;;;;;;2.17;0.88;;;;;;;21.89;49.00;98807.22;5065809;28;20063;-40
2023/07/11 08:37:19;;;;;;;4.47;1.00;;;;;;;21.70;48.95;98786.97;5062112;28;20040;-41
2023/07/11 08:39:45;;;;;;;2.97;1.35;;;;;;;21.76;48.92;98796.16;5064456;28;20040;-48
2023/07/11 08:42:34;;;;;;;2.42;1.30;;;;;;;21.72;49.29;98800.88;5066569;28;20040;-41
2023/07/11 08:45:23;;;;;;;1.25;1.00;;;;;;;21.56;49.97;98806.78;5047806;28;20048;-41
2023/07/11 08:48:16;;;;;;;3.65;1.15;;;;;;;21.35;50.25;98787.66;5044958;28;20624;-40
2023/07/11 08:50:51;;;;;;;4.18;1.20;;;;;;;21.40;50.61;98809.22;5065168;28;20040;-40
2023/07/11 08:53:19;;;;;;;4.85;1.55;;;;;;;21.72;50.03;98814.09;5058952;28;20111;-44
2023/07/11 08:55:51;;;;;;;2.97;1.63;;;;;;;21.86;49.83;98808.38;5064632;28;20032;-41
2023/07/11 08:58:38;;;;;;;4.38;1.40;;;;;;;21.71;50.38;98814.28;5051406;28;20050;-42
2023/07/11 09:01:15;;;;;;;5.55;1.70;;;;;;;21.35;50.95;98798.22;5050924;28;20044;-43
2023/07/11 09:03:47;;;;;;;2.30;1.13;;;;;;;21.14;51.52;98810.78;5065519;28;20040;-42
2023/07/11 09:06:21;;;;;;;4.07;1.02;;;;;;;20.96;51.81;98809.75;5050605;28;20048;-41
2023/07/11 09:08:54;;;;;;;3.92;1.23;;;;;;;20.88;51.82;98794.63;5068390;28;20048;-41
2023/07/11 09:11:21;;;;;;;4.13;1.10;;;;;;;21.01;51.67;98803.09;5066866;28;20456;-41
2023/07/11 09:14:11;;;;;;;2.47;1.17;;;;;;;21.25;51.51;98810.59;5052463;28;20110;-42
2023/07/11 09:16:48;;;;;;;1.52;1.00;;;;;;;21.23;51.27;98803.78;5067215;28;20045;-40
2023/07/11 09:19:29;;;;;;;2.55;1.08;;;;;;;21.23;51.22;98806.44;5061686;28;20075;-40
2023/07/11 09:22:33;;;;;;;2.97;1.38;;;;;;;21.26;51.26;98788.47;5067038;28;20036;-40
2023/07/11 09:25:22;;;;;;;4.70;1.50;;;;;;;21.17;51.48;98807.84;5070748;28;20075;-49
2023/07/11 09:28:17;;;;;;;5.22;1.23;;;;;;;20.94;51.91;98801.13;5066122;28;20810;-38
2023/07/11 09:30:50;;;;;;;5.65;1.40;;;;;;;20.69;52.69;98805.16;5067453;28;20483;-40
2023/07/11 09:33:21;;;;;;;1.27;1.02;;;;;;;21.20;51.99;98812.81;5045934;28;20041;-39
2023/07/11 09:35:47;;;;;;;8.57;1.50;;;;;;;22.22;50.07;98808.50;5063565;28;20055;-39
2023/07/11 09:38:19;;;;;;;4.22;1.63;;;;;;;23.95;47.32;98809.72;5060736;28;20041;-38
2023/07/11 09:40:53;;;;;;;3.65;0.98;;;;;;;24.12;46.67;98805.31;5055010;28;20048;-35
2023/07/11 09:43:19;;;;;;;4.13;1.10;;;;;;;23.54;47.06;98784.78;5066022;28;20049;-52
2023/07/11 09:45:45;;;;;;;3.40;1.17;;;;;;;23.45;47.06;98778.56;5051742;28;20653;-39
2023/07/11 09:48:26;;;;;;;3.90;0.95;;;;;;;23.34;47.22;98789.44;5059861;28;20372;-40
2023/07/11 09:51:10;;;;;;;2.75;1.10;;;;;;;22.87;47.94;98803.94;5067606;28;20050;-41
2023/07/11 09:53:41;;;;;;;2.03;1.30;;;;;;;22.50;48.76;98794.28;5058834;28;20117;-41
2023/07/11 09:56:17;;;;;;;3.53;1.20;;;;;;;22.46;49.02;98795.53;5057695;28;20041;-42
2023/07/11 09:58:51;;;;;;;2.67;1.23;;;;;;;22.86;48.54;98803.13;5049658;28;20049;-42
2023/07/11 10:01:32;;;;;;;1.73;1.13;;;;;;;23.74;47.06;98807.44;5065399;28;20048;-41
2023/07/11 10:03:59;;;;;;;2.85;1.00;;;;;;;25.42;44.20;98807.25;5049766;28;20041;-41
2023/07/11 10:06:37;;;;;;;2.72;1.00;;;;;;;25.80;43.09;98788.91;5048286;28;20584;-42
2023/07/11 10:09:17;;;;;;;2.80;0.90;;;;;;;26.00;41.92;98796.31;5049052;28;20508;-41
2023/07/11 10:12:01;;;;;;;4.75;0.80;;;;;;;25.73;41.83;98759.44;5050136;28;20044;-43
2023/07/11 10:14:35;;;;;;;3.80;1.05;;;;;;;25.49;42.15;98792.25;5065145;28;20068;-44
2023/07/11 10:17:16;;;;;;;1.58;1.10;;;;;;;24.87;42.96;98788.41;5048430;28;20043;-42
2023/07/11 10:19:42;;;;;;;2.60;1.00;;;;;;;24.46;43.64;98788.34;5050006;28;20182;-42
2023/07/11 10:22:16;;;;;;;2.67;0.95;;;;;;;24.25;44.11;98789.78;5048356;28;20083;-42
2023/07/11 10:24:42;;;;;;;2.63;1.20;;;;;;;24.17;43.60;98792.38;5048546;28;20036;-42
2023/07/11 10:27:27;;;;;;;4.95;1.58;;;;;;;24.25;43.30;98790.63;5049523;28;20066;-42
2023/07/11 10:29:56;;;;;;;2.15;0.98;;;;;;;24.17;43.26;98787.06;5031532;28;20067;-42
2023/07/11 10:32:44;;;;;;;5.03;1.17;;;;;;;23.94;43.48;98778.84;5049391;28;20682;-42
2023/07/11 10:35:19;;;;;;;1.63;1.00;;;;;;;24.57;42.80;98791.69;5064970;28;20045;-41
2023/07/11 10:37:47;;;;;;;1.25;0.88;;;;;;;25.78;41.24;98790.88;5047941;28;20576;-43
2023/07/11 10:40:28;;;;;;;2.55;0.80;;;;;;;26.13;39.90;98788.59;5048239;28;20044;-42
2023/07/11 10:43:15;;;;;;;5.13;1.10;;;;;;;25.29;41.58;98805.06;5048031;28;20049;-42
2023/07/11 10:45:44;;;;;;;2.23;0.70;;;;;;;24.31;43.89;98802.41;5049359;28;20053;-42
2023/07/11 10:48:35;;;;;;;1.42;1.10;;;;;;;23.48;45.81;98794.19;5049393;28;20118;-44
2023/07/11 10:51:04;;;;;;;1.65;1.00;;;;;;;22.96;46.70;98792.44;5047885;28;20040;-43
2023/07/11 10:53:40;;;;;;;2.72;1.15;;;;;;;22.96;46.63;98793.25;5064266;28;20044;-42
2023/07/11 10:56:17;;;;;;;4.90;1.00;;;;;;;23.61;45.88;98796.41;5053354;28;20243;-41
2023/07/11 10:58:43;;;;;;;10.50;1.77;;;;;;;24.40;44.94;98794.31;5067869;28;20037;-42
2023/07/11 11:01:16;;;;;;;1.20;1.10;;;;;;;25.44;43.28;98796.41;5067718;28;20036;-43
2023/07/11 11:03:46;;;;;;;1.58;1.10;;;;;;;27.77;39.54;98792.59;5068843;28;20040;-42
2023/07/11 11:06:23;;;;;;;3.67;1.30;;;;;;;29.45;36.30;98794.97;5067620;28;20575;-45
2023/07/11 11:08:49;;;;;;;3.47;1.00;;;;;;;30.44;34.83;98790.16;5067525;28;20040;-43
2023/07/11 11:11:22;;;;;;;3.33;1.20;;;;;;;30.92;33.81;98790.94;5068908;28;20102;-44
2023/07/11 11:14:16;;;;;;;1.67;0.93;;;;;;;29.86;34.13;98785.13;5068704;28;20067;-42
2023/07/11 11:16:50;;;;;;;2.20;1.08;;;;;;;28.58;35.69;98787.06;5050575;28;20056;-42
2023/07/11 11:19:34;;;;;;;2.88;1.10;;;;;;;27.58;36.85;98785.94;5050012;28;20044;-45
2023/07/11 11:22:08;;;;;;;2.67;1.30;;;;;;;26.67;37.78;98786.00;5067191;28;20039;-44
2023/07/11 11:24:49;;;;;;;5.10;1.50;;;;;;;26.11;38.60;98784.47;5067166;28;20040;-44
2023/07/11 11:27:27;;;;;;;3.78;1.00;;;;;;;27.79;35.87;98779.91;5068510;28;20452;-41
2023/07/11 11:30:07;;;;;;;2.83;0.93;;;;;;;28.30;34.29;98772.78;5050607;28;20048;-44
2023/07/11 11:33:03;;;;;;;3.22;0.90;;;;;;;29.30;32.79;98783.47;5083894;28;20038;-42
2023/07/11 11:35:59;;;;;;;1.15;0.73;;;;;;;28.85;33.07;98787.38;5066678;28;20562;-42
2023/07/11 11:38:39;;;;;;;3.30;1.42;;;;;;;27.79;34.33;98780.72;5068163;28;20048;-44
2023/07/11 11:41:11;;;;;;;5.57;1.40;;;;;;;26.44;36.83;98785.13;5066807;28;20500;-42
2023/07/11 11:43:38;;;;;;;5.78;1.48;;;;;;;25.43;39.50;98782.28;5083689;28;20072;-43
2023/07/11 11:46:06;;;;;;;6.70;1.42;;;;;;;24.51;41.37;98755.97;5066807;28;20036;-44
2023/07/11 11:48:34;;;;;;;3.17;1.00;;;;;;;24.07;42.87;98780.03;5066095;28;20052;-42